Flight Track Log - Related Links

Times and Time Zones

All times are in EDT time to prevent confusion due to time zone crossing. See the JBU1273 flight status page for this flight to view local times or setup timezone preferences in your user account.

Time Position Orientation Groundspeed Altitude Reporting Facility
EDT Latitude Longitude Course Direction KTS MPH feet Rate Location/Type
Wed 08:15:49 AM 40.6167 -73.8000 146° Southeast 175 201 1,100  Level New York TRACON
Wed 08:17:49 AM 40.5333 -73.6833 133° Southeast 294 338 5,200 2,367 Climbing New York TRACON
Wed 08:18:00 AM 40.3546 -73.5167 180° South  Level FlightAware Approximate
Wed 08:18:49 AM 40.5167 -73.5667 101° East 329 379 8,200  Level New York TRACON
Wed 08:19:00 AM 40.2679 -73.4340 159° South  Level FlightAware Approximate
Wed 08:20:00 AM 40.1823 -73.3379 146° Southeast  Level FlightAware Approximate
Wed 08:20:53 AM 40.3647 -73.4486 149° Southeast 312 359 12,800  Level New York Center
Wed 08:21:00 AM 40.1158 -73.2788 146° Southeast  Level FlightAware Approximate
Wed 08:21:53 AM 40.2594 -73.4064 163° South 366 421 14,000  Level New York Center
Wed 08:22:53 AM 40.1608 -73.3375 152° Southeast 397 457 15,000 1,861 Climbing New York Center
Wed 08:24:31 AM 39.9953 -73.2761 164° South 378 435 18,900 2,231 Climbing Washington Center
Wed 08:25:29 AM 39.8878 -73.3175 196° South 381 438 20,800 1,780 Climbing Washington Center
Wed 08:26:29 AM 39.7975 -73.3986 215° Southwest 370 426 22,400 1,091 Climbing Washington Center
Wed 08:27:30 AM 39.7267 -73.5167 232° Southwest 388 447 23,000 934 Climbing Washington Center
Wed 08:28:31 AM 39.6536 -73.6347 231° Southwest 405 466 24,300 1,412 Climbing Washington Center
Wed 08:29:29 AM 39.5783 -73.7500 230° Southwest 419 482 25,800 1,412 Climbing Washington Center
Wed 08:30:30 AM 39.4989 -73.8703 229° Southwest 430 495 27,100 1,230 Climbing Washington Center
Wed 08:31:31 AM 39.4044 -73.9639 217° Southwest 430 495 28,300 1,109 Climbing Washington Center
Wed 08:32:29 AM 39.3014 -74.0575 215° Southwest 443 510 29,300 1,373 Climbing Washington Center
Wed 08:33:29 AM 39.2025 -74.1558 218° Southwest 455 524 31,000 1,388 Climbing Washington Center
Wed 08:34:30 AM 39.1017 -74.2461 215° Southwest 455 524 32,100 1,200 Climbing Washington Center
Wed 08:35:29 AM 39.0047 -74.3442 218° Southwest 450 518 33,400 1,311 Climbing Washington Center
Wed 08:36:29 AM 38.9097 -74.4392 218° Southwest 450 518 34,700 992 Climbing Washington Center
Wed 08:37:30 AM 38.8167 -74.5153 213° Southwest 448 516 35,400 639 Climbing Washington Center
Wed 08:38:31 AM 38.7217 -74.6125 219° Southwest 442 509 36,000 403 Climbing Washington Center
Wed 08:39:29 AM 38.6222 -74.7094 217° Southwest 442 509 36,200 407 Climbing Washington Center
Wed 08:40:29 AM 38.5186 -74.7956 213° Southwest 454 522 36,800 645 Climbing Washington Center
Wed 08:41:30 AM 38.4192 -74.8947 218° Southwest 454 522 37,500 590 Climbing Washington Center
Wed 08:42:31 AM 38.3153 -74.9806 213° Southwest 454 522 38,000 252 Climbing Washington Center
Wed 08:43:29 AM 38.2136 -75.0792 217° Southwest 454 522 38,000  Level Washington Center
Wed 08:44:31 AM 38.1139 -75.1722 216° Southwest 454 522 38,000  Level Washington Center
Wed 08:45:29 AM 38.0119 -75.2597 214° Southwest 454 522 38,000  Level Washington Center
Wed 08:46:29 AM 37.9100 -75.3497 215° Southwest 454 522 38,000  Level Washington Center
Wed 08:47:29 AM 37.8103 -75.4472 218° Southwest 454 522 38,000  Level Washington Center
Wed 08:48:30 AM 37.7081 -75.5367 215° Southwest 454 522 38,000  Level Washington Center
Wed 08:49:28 AM 37.6081 -75.6258 215° Southwest 454 522 38,000  Level Washington Center
Wed 08:50:29 AM 37.5078 -75.7175 216° Southwest 454 522 38,000  Level Washington Center
Wed 08:51:29 AM 37.4075 -75.8089 216° Southwest 454 522 38,000  Level Washington Center
Wed 08:52:30 AM 37.3072 -75.8972 215° Southwest 454 522 38,000  Level Washington Center
Wed 08:53:30 AM 37.2047 -75.9883 215° Southwest 454 522 38,000  Level Washington Center
Wed 08:54:31 AM 37.1064 -76.0814 217° Southwest 454 522 38,000 -50 Level Washington Center
Wed 08:55:29 AM 37.0036 -76.2006 223° Southwest 454 522 37,900 -450 Descending Washington Center
Wed 08:56:31 AM 36.9133 -76.3114 224° Southwest 454 522 37,100 -200 Descending Washington Center
Wed 08:57:29 AM 36.8250 -76.4222 225° Southwest 454 522 37,500 454 Climbing Washington Center
Wed 08:58:30 AM 36.7386 -76.5328 226° Southwest 454 522 38,000 248 Climbing Washington Center
Wed 08:59:30 AM 36.6606 -76.6353 227° Southwest 454 522 38,000  Level Washington Center
Wed 09:00:29 AM 36.5697 -76.7453 224° Southwest 454 522 38,000  Level Washington Center
Wed 09:01:29 AM 36.4747 -76.8628 225° Southwest 449 517 38,000  Level Washington Center
Wed 09:02:30 AM 36.3922 -76.9647 225° Southwest 455 524 38,000  Level Washington Center
Wed 09:03:31 AM 36.3014 -77.0739 224° Southwest 455 524 38,000  Level Washington Center
Wed 09:04:31 AM 36.2039 -77.1931 225° Southwest 455 524 38,000  Level Washington Center
Wed 09:05:29 AM 36.1294 -77.2892 226° Southwest 447 514 38,000  Level Washington Center
Wed 09:06:29 AM 36.0403 -77.3978 225° Southwest 447 514 38,000  Level Washington Center
Wed 09:07:30 AM 35.9489 -77.5061 224° Southwest 447 514 38,000  Level Washington Center
Wed 09:08:31 AM 35.8617 -77.6117 224° Southwest 447 514 38,000  Level Washington Center
Wed 09:09:29 AM 35.7719 -77.7194 224° Southwest 447 514 38,000  Level Washington Center
Wed 09:10:30 AM 35.6825 -77.8269 224° Southwest 447 514 38,000  Level Washington Center
Wed 09:11:30 AM 35.5864 -77.9417 224° Southwest 447 514 38,000  Level Washington Center
Wed 09:12:29 AM 35.4967 -78.0464 224° Southwest 447 514 38,000 -50 Level Washington Center
Wed 09:13:30 AM 35.4069 -78.1481 223° Southwest 441 507 37,900 -450 Descending Washington Center
Wed 09:14:29 AM 35.3028 -78.2286 212° Southwest 441 507 37,100 -857 Descending Washington Center
Wed 09:15:29 AM 35.1989 -78.3092 212° Southwest 446 513 36,200 -1,041 Descending Washington Center
Wed 09:16:30 AM 35.0947 -78.3919 213° Southwest 446 513 35,000 -1,377 Descending Washington Center
Wed 09:17:31 AM 34.9883 -78.4719 212° Southwest 451 519 33,400 -1,563 Descending Washington Center
Wed 09:18:29 AM 34.8822 -78.5542 212° Southwest 451 519 31,900 -1,529 Descending Washington Center
Wed 09:20:59 AM 34.6197 -78.7525 212° Southwest 461 531 28,100 -1,114 Descending Jacksonville Center
Wed 09:21:59 AM 34.5139 -78.8333 212° Southwest 461 531 28,000 -50 Descending Jacksonville Center
Wed 09:22:59 AM 34.4000 -78.9292 215° Southwest 461 531 28,000 -350 Level Jacksonville Center
Wed 09:23:59 AM 34.2939 -79.0069 211° Southwest 456 525 27,300 -900 Descending Jacksonville Center
Wed 09:24:59 AM 34.1811 -79.0672 204° Southwest 445 512 26,200 -1,150 Descending Jacksonville Center
Wed 09:25:59 AM 34.0678 -79.1147 199° South 439 505 25,000 -1,200 Descending Jacksonville Center
Wed 09:26:59 AM 33.9586 -79.1644 201° Southwest 434 499 23,800 -1,400 Descending Jacksonville Center
Wed 09:27:59 AM 33.8578 -79.2089 200° South 428 493 22,200 -1,900 Descending Jacksonville Center
Wed 09:28:59 AM 33.7528 -79.2633 203° Southwest 423 487 20,000 -2,150 Descending Jacksonville Center
Wed 09:29:59 AM 33.6650 -79.3292 212° Southwest 398 458 17,900 -2,000 Descending Jacksonville Center
Wed 09:30:59 AM 33.5753 -79.3975 212° Southwest 387 445 16,000 -1,950 Descending Jacksonville Center
Wed 09:31:59 AM 33.4872 -79.4658 213° Southwest 387 445 14,000 -1,950 Descending Jacksonville Center
Wed 09:32:59 AM 33.4014 -79.5314 213° Southwest 381 438 12,100 -1,800 Descending Jacksonville Center
Wed 09:33:59 AM 33.3242 -79.6039 218° Southwest 370 426 10,400 -1,400 Descending Jacksonville Center
Wed 09:34:59 AM 33.2697 -79.6803 230° Southwest 341 392 9,300 -1,650 Descending Jacksonville Center
Wed 09:35:59 AM 33.2192 -79.7492 229° Southwest 302 348 7,100 -2,100 Descending Jacksonville Center
Wed 09:36:59 AM 33.1708 -79.8206 231° Southwest 285 328 5,100 -1,750 Descending Jacksonville Center
Wed 09:37:59 AM 33.1222 -79.8842 228° Southwest 275 316 3,600 -1,400 Descending Jacksonville Center
Wed 09:38:59 AM 33.0736 -79.9403 224° Southwest 264 304 2,300 -800 Descending Jacksonville Center
Wed 09:39:59 AM 33.0139 -79.9769 207° Southwest 241 277 2,000 -350 Descending Jacksonville Center
Wed 09:40:59 AM 32.9706 -80.0006 205° Southwest 205 236 1,600 -650 Descending Jacksonville Center
Wed 09:41:59 AM 32.9314 -80.0217 204° Southwest 176 203 700 -900 Descending Jacksonville Center

Login

Don't have an account? Register now (free) for customized features, flight alerts, and more!